»·PEaware :: AAL1514 KSAN-KPHX

AAL1514 :: KSAN-KPHX

FLIGHT INFORMATION

Flight Status: Arrived
Operator:
American Airlines
More flights by this operator :: More flights under this callsign
Pilot: Patricio R. (14780)
Aircraft: BOEING 737-800
(B738)
More flights by this aircraft type
Origin: KSAN San Diego Intl-Lindbergh
United States
Destination: KPHX Phoenix Sky Harbor Intl
United States
More flights between these airports :: More routes between these airports
Route: +ZZOOO2 IPL J18 BZA HOGGZ HYDRR1
File this flight plan on PilotEdge
Remarks: PBN / A1B1C1D1S1S2 DOF / 180920 REG / N806SB EET / KZAB0027 OPR / AAL PER / C RMK / TCAS SIMBRIEF
Altitude:
(Current/Filed)
29,000ft
Speed:
(Current/Filed)
453kts
Departed: 20-Sep-18 02:33 PM
Arrived: 20-Sep-18 03:28 PM
Distance/Time
Traveled:
264nm/0:55
Distance/Time
To Go:
Arrived

Flight Plot

Page will automatically refresh every two minutes.

Flight plan parsing failed; only flown route is shown


Map Options




Map Legend


Flown Route
Filed Route
Departure Airport
Arrival Airport
Navaid (VOR, NDB)
Fix

Horizontal Profiles

Position Reports

Time Latitude Longitude Heading Altitude Ground
Speed
20-Sep-18 14:15 32.732883 -117.201630 86 18ft 0kts
20-Sep-18 14:16 32.732883 -117.201630 86 18ft 0kts
20-Sep-18 14:17 32.732883 -117.201630 86 18ft 0kts
20-Sep-18 14:18 32.732883 -117.201630 86 18ft 0kts
20-Sep-18 14:19 32.732883 -117.201630 86 18ft 0kts
20-Sep-18 14:20 32.732883 -117.201630 86 18ft 0kts
20-Sep-18 14:21 32.732883 -117.201630 86 18ft 0kts
20-Sep-18 14:22 32.732868 -117.201907 86 18ft 2kts
20-Sep-18 14:23 32.732641 -117.202334 346 18ft 0kts
20-Sep-18 14:24 32.732590 -117.202313 341 17ft 0kts
20-Sep-18 14:25 32.732590 -117.202313 341 17ft 0kts
20-Sep-18 14:26 32.734207 -117.202638 15 18ft 9kts
20-Sep-18 14:27 32.735321 -117.201223 106 18ft 12kts
20-Sep-18 14:28 32.734113 -117.196246 106 21ft 19kts
20-Sep-18 14:29 32.732641 -117.190138 106 21ft 16kts
20-Sep-18 14:30 32.731251 -117.184440 105 19ft 18kts
20-Sep-18 14:31 32.730018 -117.179347 106 20ft 13kts
20-Sep-18 14:32 32.729491 -117.176840 82 23ft 2kts
20-Sep-18 14:33 32.729513 -117.176725 74 23ft 0kts
20-Sep-18 14:34 32.729891 -117.175866 21 26ft 5kts
20-Sep-18 14:35 32.735811 -117.198846 283 99ft 173kts
20-Sep-18 14:36 32.748912 -117.252995 283 2594ft 179kts
20-Sep-18 14:37 32.743126 -117.313743 211 3916ft 242kts
20-Sep-18 14:38 32.677898 -117.297524 139 6777ft 271kts
20-Sep-18 14:39 32.630303 -117.227881 106 9765ft 285kts
20-Sep-18 14:40 32.621141 -117.132856 96 12609ft 297kts
20-Sep-18 14:41 32.612010 -117.029748 97 14694ft 335kts
20-Sep-18 14:42 32.603058 -116.916946 88 17205ft 356kts
20-Sep-18 14:43 32.624743 -116.799534 77 19591ft 374kts
20-Sep-18 14:44 32.640030 -116.675565 85 21792ft 388kts
20-Sep-18 14:45 32.652392 -116.547086 85 23784ft 402kts
20-Sep-18 14:46 32.665290 -116.412529 84 25623ft 416kts
20-Sep-18 14:47 32.678406 -116.274360 85 27253ft 430kts
20-Sep-18 14:48 32.691863 -116.131246 85 28756ft 443kts
20-Sep-18 14:49 32.705815 -115.981040 84 28869ft 475kts
20-Sep-18 14:50 32.720477 -115.822061 84 28854ft 490kts
20-Sep-18 14:51 32.735048 -115.661809 84 28855ft 489kts
20-Sep-18 14:52 32.749261 -115.501139 87 28847ft 489kts
20-Sep-18 14:53 32.752752 -115.340532 90 28847ft 488kts
20-Sep-18 14:54 32.756380 -115.179930 90 28852ft 488kts
20-Sep-18 14:55 32.758532 -115.087332 89 28854ft 491kts
20-Sep-18 14:56 32.762107 -114.924175 89 28855ft 497kts
20-Sep-18 14:57 32.765126 -114.760524 89 28855ft 496kts
20-Sep-18 14:58 32.768324 -114.596515 89 28850ft 493kts
20-Sep-18 14:59 32.770493 -114.439364 89 28859ft 474kts
20-Sep-18 15:00 32.772410 -114.285396 90 28490ft 480kts
20-Sep-18 15:01 32.774282 -114.121714 90 26733ft 489kts
20-Sep-18 15:02 32.785370 -113.972049 82 26137ft 427kts
20-Sep-18 15:03 32.801179 -113.828809 82 26142ft 447kts
20-Sep-18 15:04 32.830836 -113.687596 58 26129ft 436kts
20-Sep-18 15:05 32.903159 -113.579615 47 24441ft 409kts
20-Sep-18 15:06 32.963519 -113.495099 47 22787ft 398kts
20-Sep-18 15:07 33.044441 -113.381620 46 20849ft 373kts
20-Sep-18 15:08 33.099746 -113.306150 46 19439ft 357kts
20-Sep-18 15:09 33.164037 -113.219230 47 17613ft 345kts
20-Sep-18 15:10 33.236464 -113.120964 47 16008ft 337kts
20-Sep-18 15:11 33.272171 -113.039962 78 15042ft 335kts
20-Sep-18 15:12 33.277536 -112.933196 86 13945ft 316kts
20-Sep-18 15:13 33.280229 -112.829445 86 12422ft 311kts
20-Sep-18 15:14 33.289176 -112.727917 82 11014ft 304kts
20-Sep-18 15:15 33.298618 -112.627848 82 10998ft 306kts
20-Sep-18 15:16 33.308010 -112.526939 82 11001ft 306kts
20-Sep-18 15:17 33.317292 -112.426029 82 11004ft 306kts
20-Sep-18 15:18 33.326542 -112.324965 82 11009ft 304kts
20-Sep-18 15:19 33.334973 -112.231956 82 10868ft 266kts
20-Sep-18 15:20 33.342679 -112.146624 82 10178ft 257kts
20-Sep-18 15:21 33.347788 -112.061706 90 9256ft 256kts
20-Sep-18 15:22 33.346274 -111.979207 90 8040ft 248kts
20-Sep-18 15:23 33.345875 -111.898631 88 6360ft 236kts
20-Sep-18 15:24 33.346915 -111.823016 88 5089ft 220kts
20-Sep-18 15:25 33.384999 -111.800717 318 4108ft 182kts
20-Sep-18 15:26 33.419876 -111.843895 310 3048ft 178kts
20-Sep-18 15:27 33.441239 -111.891210 267 2903ft 163kts
20-Sep-18 15:28 33.440758 -111.942919 268 1975ft 153kts
20-Sep-18 15:29 33.440869 -111.992428 268 1171ft 147kts
20-Sep-18 15:30 33.440219 -112.013553 184 1127ft 8kts
20-Sep-18 15:31 33.439694 -112.011674 112 1128ft 10kts
20-Sep-18 15:32 33.439014 -112.008511 89 1129ft 16kts
20-Sep-18 15:33 33.439045 -112.003429 89 1130ft 12kts
20-Sep-18 15:34 33.438646 -112.000653 152 1133ft 7kts
20-Sep-18 15:35 33.436853 -112.000773 265 1131ft 2kts
20-Sep-18 15:36 33.436843 -112.001265 269 1131ft 0kts
20-Sep-18 15:37 33.436843 -112.001265 269 1131ft 0kts

Navigation Log

Ident Type
Flight plan parsing failed, navigation log unavailable